sensor_id;sensor_type;location;lat;lon;timestamp;temperature;humidity
12632;DHT22;6381;45.748;12.106;2023-02-15T00:01:53;7.70;79.30
12632;DHT22;6381;45.748;12.106;2023-02-15T00:04:41;7.90;78.70
12632;DHT22;6381;45.748;12.106;2023-02-15T00:07:18;7.90;79.30
12632;DHT22;6381;45.748;12.106;2023-02-15T00:09:49;7.60;79.10
12632;DHT22;6381;45.748;12.106;2023-02-15T00:12:18;7.80;78.70
12632;DHT22;6381;45.748;12.106;2023-02-15T00:14:47;7.80;79.30
12632;DHT22;6381;45.748;12.106;2023-02-15T00:17:34;7.70;79.50
12632;DHT22;6381;45.748;12.106;2023-02-15T00:20:03;7.50;80.10
12632;DHT22;6381;45.748;12.106;2023-02-15T00:22:32;7.30;80.40
12632;DHT22;6381;45.748;12.106;2023-02-15T00:25:03;7.40;80.50
12632;DHT22;6381;45.748;12.106;2023-02-15T00:27:33;7.30;80.40
12632;DHT22;6381;45.748;12.106;2023-02-15T00:30:03;7.20;80.60
12632;DHT22;6381;45.748;12.106;2023-02-15T00:32:33;7.20;80.90
12632;DHT22;6381;45.748;12.106;2023-02-15T00:35:19;7.50;80.50
12632;DHT22;6381;45.748;12.106;2023-02-15T00:37:48;7.90;79.30
12632;DHT22;6381;45.748;12.106;2023-02-15T00:40:56;7.50;79.30
12632;DHT22;6381;45.748;12.106;2023-02-15T00:43:25;8.00;78.70
12632;DHT22;6381;45.748;12.106;2023-02-15T00:45:54;8.10;77.90
12632;DHT22;6381;45.748;12.106;2023-02-15T00:48:41;7.80;78.00
12632;DHT22;6381;45.748;12.106;2023-02-15T00:51:28;7.90;78.30
12632;DHT22;6381;45.748;12.106;2023-02-15T00:53:57;7.90;78.40
12632;DHT22;6381;45.748;12.106;2023-02-15T00:56:27;7.90;78.00
12632;DHT22;6381;45.748;12.106;2023-02-15T00:58:57;8.10;77.40
12632;DHT22;6381;45.748;12.106;2023-02-15T01:01:27;7.80;77.40
12632;DHT22;6381;45.748;12.106;2023-02-15T01:03:56;7.90;77.80
12632;DHT22;6381;45.748;12.106;2023-02-15T01:06:29;8.10;77.50
12632;DHT22;6381;45.748;12.106;2023-02-15T01:09:16;8.30;77.00
12632;DHT22;6381;45.748;12.106;2023-02-15T01:11:47;8.40;76.20
12632;DHT22;6381;45.748;12.106;2023-02-15T01:14:16;8.50;75.60
12632;DHT22;6381;45.748;12.106;2023-02-15T01:16:45;8.40;75.60
12632;DHT22;6381;45.748;12.106;2023-02-15T01:19:14;8.40;75.30
12632;DHT22;6381;45.748;12.106;2023-02-15T01:21:43;8.10;74.90
12632;DHT22;6381;45.748;12.106;2023-02-15T01:24:30;7.60;75.50
12632;DHT22;6381;45.748;12.106;2023-02-15T01:27:03;7.40;76.50
12632;DHT22;6381;45.748;12.106;2023-02-15T01:29:32;7.10;77.20
12632;DHT22;6381;45.748;12.106;2023-02-15T01:32:02;7.10;77.90
12632;DHT22;6381;45.748;12.106;2023-02-15T01:34:31;7.10;78.50
12632;DHT22;6381;45.748;12.106;2023-02-15T01:37:00;7.00;79.10
12632;DHT22;6381;45.748;12.106;2023-02-15T01:39:29;7.10;78.90
12632;DHT22;6381;45.748;12.106;2023-02-15T01:41:58;7.10;78.80
12632;DHT22;6381;45.748;12.106;2023-02-15T01:44:49;7.20;79.30
12632;DHT22;6381;45.748;12.106;2023-02-15T01:47:39;7.30;78.70
12632;DHT22;6381;45.748;12.106;2023-02-15T01:50:13;7.10;79.20
12632;DHT22;6381;45.748;12.106;2023-02-15T01:52:48;7.00;79.20
12632;DHT22;6381;45.748;12.106;2023-02-15T01:55:18;7.30;79.00
12632;DHT22;6381;45.748;12.106;2023-02-15T01:57:48;7.30;78.10
12632;DHT22;6381;45.748;12.106;2023-02-15T02:00:20;7.40;77.80
12632;DHT22;6381;45.748;12.106;2023-02-15T02:02:53;7.60;77.10
12632;DHT22;6381;45.748;12.106;2023-02-15T02:05:24;7.50;76.80
12632;DHT22;6381;45.748;12.106;2023-02-15T02:08:12;7.60;76.20
12632;DHT22;6381;45.748;12.106;2023-02-15T02:10:42;7.60;75.70
12632;DHT22;6381;45.748;12.106;2023-02-15T02:13:12;7.40;76.00
12632;DHT22;6381;45.748;12.106;2023-02-15T02:15:49;7.30;75.90
12632;DHT22;6381;45.748;12.106;2023-02-15T02:18:44;7.50;74.70
12632;DHT22;6381;45.748;12.106;2023-02-15T02:21:39;7.40;74.20
12632;DHT22;6381;45.748;12.106;2023-02-15T02:24:45;7.50;74.20
12632;DHT22;6381;45.748;12.106;2023-02-15T02:27:40;7.50;74.80
12632;DHT22;6381;45.748;12.106;2023-02-15T02:33:34;7.10;76.90
12632;DHT22;6381;45.748;12.106;2023-02-15T02:36:15;6.80;77.00
12632;DHT22;6381;45.748;12.106;2023-02-15T02:39:06;7.10;77.20
12632;DHT22;6381;45.748;12.106;2023-02-15T02:41:41;7.10;76.40
12632;DHT22;6381;45.748;12.106;2023-02-15T02:44:18;7.40;76.40
12632;DHT22;6381;45.748;12.106;2023-02-15T02:46:51;7.30;76.10
12632;DHT22;6381;45.748;12.106;2023-02-15T02:49:37;7.40;76.00
12632;DHT22;6381;45.748;12.106;2023-02-15T02:52:32;7.30;76.20
12632;DHT22;6381;45.748;12.106;2023-02-15T02:54:58;7.20;76.20
12632;DHT22;6381;45.748;12.106;2023-02-15T02:57:29;7.00;76.30
12632;DHT22;6381;45.748;12.106;2023-02-15T03:00:00;6.80;76.00
12632;DHT22;6381;45.748;12.106;2023-02-15T03:02:33;6.80;76.40
12632;DHT22;6381;45.748;12.106;2023-02-15T03:05:24;7.00;76.50
12632;DHT22;6381;45.748;12.106;2023-02-15T03:07:55;7.10;76.80
12632;DHT22;6381;45.748;12.106;2023-02-15T03:10:27;6.90;76.60
12632;DHT22;6381;45.748;12.106;2023-02-15T03:12:57;7.20;77.20
12632;DHT22;6381;45.748;12.106;2023-02-15T03:15:30;6.90;77.00
12632;DHT22;6381;45.748;12.106;2023-02-15T03:18:22;6.70;77.70
12632;DHT22;6381;45.748;12.106;2023-02-15T03:21:09;6.30;78.20
12632;DHT22;6381;45.748;12.106;2023-02-15T03:24:10;6.40;78.60
12632;DHT22;6381;45.748;12.106;2023-02-15T03:26:48;6.50;78.80
12632;DHT22;6381;45.748;12.106;2023-02-15T03:29:20;6.20;79.40
12632;DHT22;6381;45.748;12.106;2023-02-15T03:31:53;6.60;79.10
12632;DHT22;6381;45.748;12.106;2023-02-15T03:34:24;6.60;79.10
12632;DHT22;6381;45.748;12.106;2023-02-15T03:37:15;6.50;78.90
12632;DHT22;6381;45.748;12.106;2023-02-15T03:39:50;6.30;80.20
12632;DHT22;6381;45.748;12.106;2023-02-15T03:42:26;6.40;80.40
12632;DHT22;6381;45.748;12.106;2023-02-15T03:44:59;6.40;80.00
12632;DHT22;6381;45.748;12.106;2023-02-15T03:47:49;6.50;79.70
12632;DHT22;6381;45.748;12.106;2023-02-15T03:50:21;6.60;79.50
12632;DHT22;6381;45.748;12.106;2023-02-15T03:53:19;6.80;79.20
12632;DHT22;6381;45.748;12.106;2023-02-15T03:55:53;6.80;78.80
12632;DHT22;6381;45.748;12.106;2023-02-15T03:58:24;6.70;78.70
12632;DHT22;6381;45.748;12.106;2023-02-15T04:01:17;6.60;78.70
12632;DHT22;6381;45.748;12.106;2023-02-15T04:04:09;6.30;79.80
12632;DHT22;6381;45.748;12.106;2023-02-15T04:06:39;6.50;79.60
12632;DHT22;6381;45.748;12.106;2023-02-15T04:09:27;6.20;79.20
12632;DHT22;6381;45.748;12.106;2023-02-15T04:12:13;6.10;80.20
12632;DHT22;6381;45.748;12.106;2023-02-15T04:14:43;6.10;80.90
12632;DHT22;6381;45.748;12.106;2023-02-15T04:17:30;6.30;81.50
12632;DHT22;6381;45.748;12.106;2023-02-15T04:19:59;6.60;80.50
12632;DHT22;6381;45.748;12.106;2023-02-15T04:22:45;6.80;80.10
12632;DHT22;6381;45.748;12.106;2023-02-15T04:25:31;6.80;79.90
12632;DHT22;6381;45.748;12.106;2023-02-15T04:28:00;6.60;81.30
12632;DHT22;6381;45.748;12.106;2023-02-15T04:30:30;6.80;80.80
12632;DHT22;6381;45.748;12.106;2023-02-15T04:32:59;6.60;81.20
12632;DHT22;6381;45.748;12.106;2023-02-15T04:35:28;6.50;81.60
12632;DHT22;6381;45.748;12.106;2023-02-15T04:37:59;6.40;81.60
12632;DHT22;6381;45.748;12.106;2023-02-15T04:40:28;6.60;81.60
12632;DHT22;6381;45.748;12.106;2023-02-15T04:42:57;6.30;82.80
12632;DHT22;6381;45.748;12.106;2023-02-15T04:45:26;6.40;82.80
12632;DHT22;6381;45.748;12.106;2023-02-15T04:47:57;6.40;82.80
12632;DHT22;6381;45.748;12.106;2023-02-15T04:50:26;6.50;82.90
12632;DHT22;6381;45.748;12.106;2023-02-15T04:52:55;6.30;83.30
12632;DHT22;6381;45.748;12.106;2023-02-15T04:55:24;6.30;84.80
12632;DHT22;6381;45.748;12.106;2023-02-15T04:57:54;6.50;84.20
12632;DHT22;6381;45.748;12.106;2023-02-15T05:00:40;6.50;83.60
12632;DHT22;6381;45.748;12.106;2023-02-15T05:03:10;6.60;83.00
12632;DHT22;6381;45.748;12.106;2023-02-15T05:05:39;6.70;83.30
12632;DHT22;6381;45.748;12.106;2023-02-15T05:08:08;6.50;83.10
12632;DHT22;6381;45.748;12.106;2023-02-15T05:10:37;6.50;83.70
12632;DHT22;6381;45.748;12.106;2023-02-15T05:13:06;6.40;82.70
12632;DHT22;6381;45.748;12.106;2023-02-15T05:15:35;6.10;83.90
12632;DHT22;6381;45.748;12.106;2023-02-15T05:18:04;5.90;84.90
12632;DHT22;6381;45.748;12.106;2023-02-15T05:20:36;6.20;84.90
12632;DHT22;6381;45.748;12.106;2023-02-15T05:23:05;6.10;84.30
12632;DHT22;6381;45.748;12.106;2023-02-15T05:26:11;5.80;85.00
12632;DHT22;6381;45.748;12.106;2023-02-15T05:29:14;5.90;85.60
12632;DHT22;6381;45.748;12.106;2023-02-15T05:32:17;6.20;84.90
12632;DHT22;6381;45.748;12.106;2023-02-15T05:35:05;6.50;83.80
12632;DHT22;6381;45.748;12.106;2023-02-15T05:37:36;5.90;83.30
12632;DHT22;6381;45.748;12.106;2023-02-15T05:40:07;5.80;85.00
12632;DHT22;6381;45.748;12.106;2023-02-15T05:42:36;5.80;85.60
12632;DHT22;6381;45.748;12.106;2023-02-15T05:45:06;5.70;86.20
12632;DHT22;6381;45.748;12.106;2023-02-15T05:47:35;6.00;85.50
12632;DHT22;6381;45.748;12.106;2023-02-15T05:50:05;5.80;85.00
12632;DHT22;6381;45.748;12.106;2023-02-15T05:52:36;5.70;85.00
12632;DHT22;6381;45.748;12.106;2023-02-15T05:55:06;5.20;86.00
12632;DHT22;6381;45.748;12.106;2023-02-15T05:57:52;5.90;86.20
12632;DHT22;6381;45.748;12.106;2023-02-15T06:00:21;5.90;85.70
12632;DHT22;6381;45.748;12.106;2023-02-15T06:02:50;5.80;85.10
12632;DHT22;6381;45.748;12.106;2023-02-15T06:05:19;5.50;85.90
12632;DHT22;6381;45.748;12.106;2023-02-15T06:07:50;5.60;85.70
12632;DHT22;6381;45.748;12.106;2023-02-15T06:10:19;5.60;86.00
12632;DHT22;6381;45.748;12.106;2023-02-15T06:12:48;5.70;86.10
12632;DHT22;6381;45.748;12.106;2023-02-15T06:15:36;5.70;86.00
12632;DHT22;6381;45.748;12.106;2023-02-15T06:18:05;5.80;84.60
12632;DHT22;6381;45.748;12.106;2023-02-15T06:20:34;6.20;84.50
12632;DHT22;6381;45.748;12.106;2023-02-15T06:23:05;6.30;90.10
12632;DHT22;6381;45.748;12.106;2023-02-15T06:25:34;6.30;82.40
12632;DHT22;6381;45.748;12.106;2023-02-15T06:28:06;6.10;81.70
12632;DHT22;6381;45.748;12.106;2023-02-15T06:30:52;6.30;82.60
12632;DHT22;6381;45.748;12.106;2023-02-15T06:33:38;6.50;82.10
12632;DHT22;6381;45.748;12.106;2023-02-15T06:36:07;6.60;81.00
12632;DHT22;6381;45.748;12.106;2023-02-15T06:38:38;6.50;80.90
12632;DHT22;6381;45.748;12.106;2023-02-15T06:41:24;6.40;81.00
12632;DHT22;6381;45.748;12.106;2023-02-15T06:43:53;6.00;81.20
12632;DHT22;6381;45.748;12.106;2023-02-15T06:46:40;6.20;80.80
12632;DHT22;6381;45.748;12.106;2023-02-15T06:49:09;6.20;80.80
12632;DHT22;6381;45.748;12.106;2023-02-15T06:51:38;6.20;80.20
12632;DHT22;6381;45.748;12.106;2023-02-15T06:54:08;6.50;80.50
12632;DHT22;6381;45.748;12.106;2023-02-15T06:56:37;6.70;79.90
12632;DHT22;6381;45.748;12.106;2023-02-15T06:59:06;6.70;79.10
12632;DHT22;6381;45.748;12.106;2023-02-15T07:01:35;6.60;79.20
12632;DHT22;6381;45.748;12.106;2023-02-15T07:04:22;6.80;79.70
12632;DHT22;6381;45.748;12.106;2023-02-15T07:07:08;6.70;79.60
12632;DHT22;6381;45.748;12.106;2023-02-15T07:09:40;6.80;80.20
12632;DHT22;6381;45.748;12.106;2023-02-15T07:12:09;6.80;80.80
12632;DHT22;6381;45.748;12.106;2023-02-15T07:14:55;6.90;80.30
12632;DHT22;6381;45.748;12.106;2023-02-15T07:17:25;6.80;80.00
12632;DHT22;6381;45.748;12.106;2023-02-15T07:20:22;7.20;79.50
12632;DHT22;6381;45.748;12.106;2023-02-15T07:22:52;7.40;79.70
12632;DHT22;6381;45.748;12.106;2023-02-15T07:25:22;7.80;78.70
12632;DHT22;6381;45.748;12.106;2023-02-15T07:27:56;8.00;78.10
12632;DHT22;6381;45.748;12.106;2023-02-15T07:30:25;8.20;76.50
12632;DHT22;6381;45.748;12.106;2023-02-15T07:32:55;8.50;74.80
12632;DHT22;6381;45.748;12.106;2023-02-15T07:36:00;8.50;74.80
12632;DHT22;6381;45.748;12.106;2023-02-15T07:38:46;8.90;74.50
12632;DHT22;6381;45.748;12.106;2023-02-15T07:41:35;8.70;74.60
12632;DHT22;6381;45.748;12.106;2023-02-15T07:44:12;8.70;74.50
12632;DHT22;6381;45.748;12.106;2023-02-15T07:46:58;8.80;73.70
12632;DHT22;6381;45.748;12.106;2023-02-15T07:49:28;9.00;72.20
12632;DHT22;6381;45.748;12.106;2023-02-15T07:51:57;9.20;71.20
12632;DHT22;6381;45.748;12.106;2023-02-15T07:54:29;9.40;71.00
12632;DHT22;6381;45.748;12.106;2023-02-15T07:57:00;9.40;70.30
12632;DHT22;6381;45.748;12.106;2023-02-15T07:59:29;9.60;69.30
12632;DHT22;6381;45.748;12.106;2023-02-15T08:01:58;9.70;68.70
12632;DHT22;6381;45.748;12.106;2023-02-15T08:04:27;10.00;69.50
12632;DHT22;6381;45.748;12.106;2023-02-15T08:06:56;10.10;67.50
12632;DHT22;6381;45.748;12.106;2023-02-15T08:09:25;10.20;66.50
12632;DHT22;6381;45.748;12.106;2023-02-15T08:11:54;10.40;66.50
12632;DHT22;6381;45.748;12.106;2023-02-15T08:14:26;10.50;65.60
12632;DHT22;6381;45.748;12.106;2023-02-15T08:16:58;10.30;65.50
12632;DHT22;6381;45.748;12.106;2023-02-15T08:19:31;10.40;65.30
12632;DHT22;6381;45.748;12.106;2023-02-15T08:22:03;10.70;65.50
12632;DHT22;6381;45.748;12.106;2023-02-15T08:24:50;10.50;64.60
12632;DHT22;6381;45.748;12.106;2023-02-15T08:27:19;10.80;65.30
12632;DHT22;6381;45.748;12.106;2023-02-15T08:29:55;10.80;65.00
12632;DHT22;6381;45.748;12.106;2023-02-15T08:32:24;10.60;66.40
12632;DHT22;6381;45.748;12.106;2023-02-15T08:34:53;10.80;66.60
12632;DHT22;6381;45.748;12.106;2023-02-15T08:37:22;10.70;65.60
12632;DHT22;6381;45.748;12.106;2023-02-15T08:50:29;11.00;66.10
12632;DHT22;6381;45.748;12.106;2023-02-15T08:55:27;11.60;62.10
12632;DHT22;6381;45.748;12.106;2023-02-15T08:57:57;12.10;60.40
12632;DHT22;6381;45.748;12.106;2023-02-15T09:00:45;12.20;59.60
12632;DHT22;6381;45.748;12.106;2023-02-15T09:03:14;11.90;58.80
12632;DHT22;6381;45.748;12.106;2023-02-15T09:05:43;12.30;58.80
12632;DHT22;6381;45.748;12.106;2023-02-15T09:08:12;12.40;58.30
12632;DHT22;6381;45.748;12.106;2023-02-15T09:10:42;12.50;57.60
12632;DHT22;6381;45.748;12.106;2023-02-15T09:13:11;12.60;58.00
12632;DHT22;6381;45.748;12.106;2023-02-15T09:15:40;12.70;60.00
12632;DHT22;6381;45.748;12.106;2023-02-15T09:18:11;12.80;58.90
12632;DHT22;6381;45.748;12.106;2023-02-15T09:20:44;12.80;58.50
12632;DHT22;6381;45.748;12.106;2023-02-15T09:23:13;13.00;58.60
12632;DHT22;6381;45.748;12.106;2023-02-15T09:25:53;13.00;57.20
12632;DHT22;6381;45.748;12.106;2023-02-15T09:28:22;13.00;56.10
12632;DHT22;6381;45.748;12.106;2023-02-15T09:30:51;13.20;56.60
12632;DHT22;6381;45.748;12.106;2023-02-15T09:33:22;13.30;55.40
12632;DHT22;6381;45.748;12.106;2023-02-15T09:35:52;13.30;56.30
12632;DHT22;6381;45.748;12.106;2023-02-15T09:38:21;13.20;55.00
12632;DHT22;6381;45.748;12.106;2023-02-15T09:41:02;13.30;55.60
12632;DHT22;6381;45.748;12.106;2023-02-15T09:43:40;13.60;55.70
12632;DHT22;6381;45.748;12.106;2023-02-15T09:46:22;13.50;55.00
12632;DHT22;6381;45.748;12.106;2023-02-15T09:49:22;13.60;53.70
12632;DHT22;6381;45.748;12.106;2023-02-15T09:52:26;13.70;56.70
12632;DHT22;6381;45.748;12.106;2023-02-15T09:55:29;13.70;55.50
12632;DHT22;6381;45.748;12.106;2023-02-15T09:58:07;13.90;52.70
12632;DHT22;6381;45.748;12.106;2023-02-15T10:00:46;13.50;51.60
12632;DHT22;6381;45.748;12.106;2023-02-15T10:03:38;13.60;52.50
12632;DHT22;6381;45.748;12.106;2023-02-15T10:06:33;13.90;53.70
12632;DHT22;6381;45.748;12.106;2023-02-15T10:09:27;13.80;52.00
12632;DHT22;6381;45.748;12.106;2023-02-15T10:12:24;13.80;53.50
12632;DHT22;6381;45.748;12.106;2023-02-15T10:15:29;13.90;52.20
12632;DHT22;6381;45.748;12.106;2023-02-15T10:18:17;14.20;52.10
12632;DHT22;6381;45.748;12.106;2023-02-15T10:20:57;14.40;50.60
12632;DHT22;6381;45.748;12.106;2023-02-15T10:23:57;14.70;53.10
12632;DHT22;6381;45.748;12.106;2023-02-15T10:26:45;14.60;50.90
12632;DHT22;6381;45.748;12.106;2023-02-15T10:29:25;14.90;49.60
12632;DHT22;6381;45.748;12.106;2023-02-15T10:32:01;15.10;51.20
12632;DHT22;6381;45.748;12.106;2023-02-15T10:34:38;14.70;51.60
12632;DHT22;6381;45.748;12.106;2023-02-15T10:40:10;15.10;47.50
12632;DHT22;6381;45.748;12.106;2023-02-15T10:45:58;14.90;47.90
12632;DHT22;6381;45.748;12.106;2023-02-15T10:48:42;15.40;48.70
12632;DHT22;6381;45.748;12.106;2023-02-15T10:51:18;15.60;47.80
12632;DHT22;6381;45.748;12.106;2023-02-15T10:54:17;15.90;47.70
12632;DHT22;6381;45.748;12.106;2023-02-15T10:56:59;15.70;47.30
12632;DHT22;6381;45.748;12.106;2023-02-15T10:59:52;15.30;47.10
12632;DHT22;6381;45.748;12.106;2023-02-15T11:02:51;15.80;48.30
12632;DHT22;6381;45.748;12.106;2023-02-15T11:05:35;16.30;46.70
12632;DHT22;6381;45.748;12.106;2023-02-15T11:08:09;16.40;45.10
12632;DHT22;6381;45.748;12.106;2023-02-15T11:10:42;16.80;46.60
12632;DHT22;6381;45.748;12.106;2023-02-15T11:13:15;16.70;44.90
12632;DHT22;6381;45.748;12.106;2023-02-15T11:16:06;17.10;44.70
12632;DHT22;6381;45.748;12.106;2023-02-15T11:18:41;16.50;43.20
12632;DHT22;6381;45.748;12.106;2023-02-15T11:21:31;16.50;44.20
12632;DHT22;6381;45.748;12.106;2023-02-15T11:24:09;16.30;44.20
12632;DHT22;6381;45.748;12.106;2023-02-15T11:26:59;16.50;45.00
12632;DHT22;6381;45.748;12.106;2023-02-15T11:29:56;17.00;43.90
12632;DHT22;6381;45.748;12.106;2023-02-15T11:32:48;16.20;44.20
12632;DHT22;6381;45.748;12.106;2023-02-15T11:35:24;16.30;43.90
12632;DHT22;6381;45.748;12.106;2023-02-15T11:37:58;17.10;44.50
12632;DHT22;6381;45.748;12.106;2023-02-15T11:40:32;17.20;42.90
12632;DHT22;6381;45.748;12.106;2023-02-15T11:43:05;17.80;41.70
12632;DHT22;6381;45.748;12.106;2023-02-15T11:45:38;17.10;41.70
12632;DHT22;6381;45.748;12.106;2023-02-15T11:48:10;17.80;42.20
12632;DHT22;6381;45.748;12.106;2023-02-15T11:50:41;17.80;40.80
12632;DHT22;6381;45.748;12.106;2023-02-15T11:53:13;18.20;41.10
12632;DHT22;6381;45.748;12.106;2023-02-15T11:55:44;18.30;42.60
12632;DHT22;6381;45.748;12.106;2023-02-15T11:58:24;19.00;42.30
12632;DHT22;6381;45.748;12.106;2023-02-15T12:01:01;18.50;38.30
12632;DHT22;6381;45.748;12.106;2023-02-15T12:03:51;17.60;38.90
12632;DHT22;6381;45.748;12.106;2023-02-15T12:06:24;17.50;38.80
12632;DHT22;6381;45.748;12.106;2023-02-15T12:09:03;17.90;38.70
12632;DHT22;6381;45.748;12.106;2023-02-15T12:11:36;19.40;38.50
12632;DHT22;6381;45.748;12.106;2023-02-15T12:14:07;19.70;36.40
12632;DHT22;6381;45.748;12.106;2023-02-15T12:16:56;18.70;37.60
12632;DHT22;6381;45.748;12.106;2023-02-15T12:19:43;18.20;37.70
12632;DHT22;6381;45.748;12.106;2023-02-15T12:22:21;18.30;37.50
12632;DHT22;6381;45.748;12.106;2023-02-15T12:25:21;18.70;37.30
12632;DHT22;6381;45.748;12.106;2023-02-15T12:27:51;19.00;36.50
12632;DHT22;6381;45.748;12.106;2023-02-15T12:30:25;19.70;37.20
12632;DHT22;6381;45.748;12.106;2023-02-15T12:33:05;20.10;36.30
12632;DHT22;6381;45.748;12.106;2023-02-15T12:35:36;19.10;36.20
12632;DHT22;6381;45.748;12.106;2023-02-15T12:38:21;19.70;35.90
12632;DHT22;6381;45.748;12.106;2023-02-15T12:41:24;19.60;35.20
12632;DHT22;6381;45.748;12.106;2023-02-15T12:44:04;19.80;34.90
12632;DHT22;6381;45.748;12.106;2023-02-15T12:46:40;20.20;35.40
12632;DHT22;6381;45.748;12.106;2023-02-15T12:49:17;20.50;34.80
12632;DHT22;6381;45.748;12.106;2023-02-15T12:51:49;20.70;35.40
12632;DHT22;6381;45.748;12.106;2023-02-15T12:57:26;20.90;34.20
12632;DHT22;6381;45.748;12.106;2023-02-15T12:59:58;20.40;33.40
12632;DHT22;6381;45.748;12.106;2023-02-15T13:02:47;20.90;33.00
12632;DHT22;6381;45.748;12.106;2023-02-15T13:05:21;20.90;33.00
12632;DHT22;6381;45.748;12.106;2023-02-15T13:07:56;20.70;32.60
12632;DHT22;6381;45.748;12.106;2023-02-15T13:10:28;21.50;32.90
12632;DHT22;6381;45.748;12.106;2023-02-15T13:12:58;20.50;31.90
12632;DHT22;6381;45.748;12.106;2023-02-15T13:15:34;20.60;32.80
12632;DHT22;6381;45.748;12.106;2023-02-15T13:18:05;21.10;32.40
12632;DHT22;6381;45.748;12.106;2023-02-15T13:20:40;21.20;31.60
12632;DHT22;6381;45.748;12.106;2023-02-15T13:23:26;22.00;31.00
12632;DHT22;6381;45.748;12.106;2023-02-15T13:25:57;21.80;30.50
12632;DHT22;6381;45.748;12.106;2023-02-15T13:28:35;21.40;30.70
12632;DHT22;6381;45.748;12.106;2023-02-15T13:31:13;22.00;30.70
12632;DHT22;6381;45.748;12.106;2023-02-15T13:34:07;22.20;30.40
12632;DHT22;6381;45.748;12.106;2023-02-15T13:36:46;22.40;29.70
12632;DHT22;6381;45.748;12.106;2023-02-15T13:39:51;20.90;29.80
12632;DHT22;6381;45.748;12.106;2023-02-15T13:42:25;21.60;29.90
12632;DHT22;6381;45.748;12.106;2023-02-15T13:45:27;22.00;29.50
12632;DHT22;6381;45.748;12.106;2023-02-15T13:48:03;22.90;29.30
12632;DHT22;6381;45.748;12.106;2023-02-15T13:50:58;22.60;29.30
12632;DHT22;6381;45.748;12.106;2023-02-15T13:53:57;21.60;28.90
12632;DHT22;6381;45.748;12.106;2023-02-15T13:56:38;22.00;29.30
12632;DHT22;6381;45.748;12.106;2023-02-15T13:59:41;21.20;28.70
12632;DHT22;6381;45.748;12.106;2023-02-15T14:05:29;21.40;28.70
12632;DHT22;6381;45.748;12.106;2023-02-15T14:08:11;21.70;29.20
12632;DHT22;6381;45.748;12.106;2023-02-15T14:10:50;21.80;28.80
12632;DHT22;6381;45.748;12.106;2023-02-15T14:16:36;22.10;28.80
12632;DHT22;6381;45.748;12.106;2023-02-15T14:19:39;22.10;28.50
12632;DHT22;6381;45.748;12.106;2023-02-15T14:22:20;22.30;28.10
12632;DHT22;6381;45.748;12.106;2023-02-15T14:25:02;21.60;28.20
12632;DHT22;6381;45.748;12.106;2023-02-15T14:27:47;21.10;28.90
12632;DHT22;6381;45.748;12.106;2023-02-15T14:30:22;21.60;28.00
12632;DHT22;6381;45.748;12.106;2023-02-15T14:33:31;21.80;28.50
12632;DHT22;6381;45.748;12.106;2023-02-15T14:36:04;22.10;28.10
12632;DHT22;6381;45.748;12.106;2023-02-15T14:38:46;21.60;27.40
12632;DHT22;6381;45.748;12.106;2023-02-15T14:41:20;20.80;28.20
12632;DHT22;6381;45.748;12.106;2023-02-15T14:44:12;21.00;28.70
12632;DHT22;6381;45.748;12.106;2023-02-15T14:46:48;21.70;28.30
12632;DHT22;6381;45.748;12.106;2023-02-15T14:49:38;20.30;27.90
12632;DHT22;6381;45.748;12.106;2023-02-15T14:52:08;20.50;28.50
12632;DHT22;6381;45.748;12.106;2023-02-15T14:54:58;20.40;28.70
12632;DHT22;6381;45.748;12.106;2023-02-15T14:57:32;20.40;29.10
12632;DHT22;6381;45.748;12.106;2023-02-15T15:03:20;19.90;29.80
12632;DHT22;6381;45.748;12.106;2023-02-15T15:06:20;20.80;29.70
12632;DHT22;6381;45.748;12.106;2023-02-15T15:08:53;21.30;28.60
12632;DHT22;6381;45.748;12.106;2023-02-15T15:11:48;20.50;29.00
12632;DHT22;6381;45.748;12.106;2023-02-15T15:14:37;20.50;29.20
12632;DHT22;6381;45.748;12.106;2023-02-15T15:20:46;20.00;30.00
12632;DHT22;6381;45.748;12.106;2023-02-15T15:23:38;20.00;29.80
12632;DHT22;6381;45.748;12.106;2023-02-15T15:26:30;19.60;30.00
12632;DHT22;6381;45.748;12.106;2023-02-15T15:29:01;20.00;30.50
12632;DHT22;6381;45.748;12.106;2023-02-15T15:31:43;20.40;30.00
12632;DHT22;6381;45.748;12.106;2023-02-15T15:34:40;20.20;30.00
12632;DHT22;6381;45.748;12.106;2023-02-15T15:37:41;20.10;30.40
12632;DHT22;6381;45.748;12.106;2023-02-15T15:43:53;20.20;29.80
12632;DHT22;6381;45.748;12.106;2023-02-15T15:46:57;21.10;29.70
12632;DHT22;6381;45.748;12.106;2023-02-15T15:49:31;21.10;29.30
12632;DHT22;6381;45.748;12.106;2023-02-15T15:52:08;20.90;29.20
12632;DHT22;6381;45.748;12.106;2023-02-15T15:54:41;20.80;29.60
12632;DHT22;6381;45.748;12.106;2023-02-15T15:57:32;21.00;29.40
12632;DHT22;6381;45.748;12.106;2023-02-15T16:00:03;20.20;29.40
12632;DHT22;6381;45.748;12.106;2023-02-15T16:02:49;19.90;30.60
12632;DHT22;6381;45.748;12.106;2023-02-15T16:05:39;19.30;30.60
12632;DHT22;6381;45.748;12.106;2023-02-15T16:08:08;18.20;32.40
12632;DHT22;6381;45.748;12.106;2023-02-15T16:10:38;17.60;33.30
12632;DHT22;6381;45.748;12.106;2023-02-15T16:13:13;17.30;33.90
12632;DHT22;6381;45.748;12.106;2023-02-15T16:15:44;16.90;34.30
12632;DHT22;6381;45.748;12.106;2023-02-15T16:18:18;16.70;35.00
12632;DHT22;6381;45.748;12.106;2023-02-15T16:20:51;16.50;35.40
12632;DHT22;6381;45.748;12.106;2023-02-15T16:26:45;16.40;36.20
12632;DHT22;6381;45.748;12.106;2023-02-15T16:29:25;16.50;36.80
12632;DHT22;6381;45.748;12.106;2023-02-15T16:32:01;16.30;37.20
12632;DHT22;6381;45.748;12.106;2023-02-15T16:34:31;16.30;37.60
12632;DHT22;6381;45.748;12.106;2023-02-15T16:37:14;16.50;38.30
12632;DHT22;6381;45.748;12.106;2023-02-15T16:39:45;16.50;38.70
12632;DHT22;6381;45.748;12.106;2023-02-15T16:42:17;16.30;38.60
12632;DHT22;6381;45.748;12.106;2023-02-15T16:45:08;16.20;39.10
12632;DHT22;6381;45.748;12.106;2023-02-15T16:47:40;15.90;38.90
12632;DHT22;6381;45.748;12.106;2023-02-15T16:50:30;15.60;38.50
12632;DHT22;6381;45.748;12.106;2023-02-15T16:53:02;15.60;39.70
12632;DHT22;6381;45.748;12.106;2023-02-15T16:55:35;15.70;40.30
12632;DHT22;6381;45.748;12.106;2023-02-15T16:58:29;15.70;40.10
12632;DHT22;6381;45.748;12.106;2023-02-15T17:01:00;15.70;40.30
12632;DHT22;6381;45.748;12.106;2023-02-15T17:03:31;15.70;41.00
12632;DHT22;6381;45.748;12.106;2023-02-15T17:06:02;15.60;41.50
12632;DHT22;6381;45.748;12.106;2023-02-15T17:08:33;15.30;41.80
12632;DHT22;6381;45.748;12.106;2023-02-15T17:11:16;15.20;42.40
12632;DHT22;6381;45.748;12.106;2023-02-15T17:14:20;15.00;42.90
12632;DHT22;6381;45.748;12.106;2023-02-15T17:16:52;15.00;42.20
12632;DHT22;6381;45.748;12.106;2023-02-15T17:19:24;14.90;43.40
12632;DHT22;6381;45.748;12.106;2023-02-15T17:21:56;14.90;43.80
12632;DHT22;6381;45.748;12.106;2023-02-15T17:24:39;14.80;43.50
12632;DHT22;6381;45.748;12.106;2023-02-15T17:27:14;14.70;44.10
12632;DHT22;6381;45.748;12.106;2023-02-15T17:29:47;14.20;44.30
12632;DHT22;6381;45.748;12.106;2023-02-15T17:32:20;14.00;44.90